createdAt,value
2022-08-24T06:07:12.195Z,20.76
2022-08-24T06:34:19.100Z,21.15
2022-08-24T07:15:55.674Z,22.39
2022-08-24T07:21:27.998Z,22.63
2022-08-24T07:27:50.527Z,22.82
2022-08-24T07:36:38.087Z,22.96
2022-08-24T07:45:53.100Z,23.35
2022-08-24T07:48:48.624Z,23.36
2022-08-24T07:51:27.550Z,23.53
2022-08-24T07:54:14.044Z,23.61
2022-08-24T07:56:55.985Z,23.48
2022-08-24T07:59:43.078Z,23.65
2022-08-24T08:06:24.506Z,23.67
2022-08-24T08:09:04.662Z,23.82
2022-08-24T08:11:32.069Z,23.90
2022-08-24T08:17:04.231Z,24.20
2022-08-24T09:45:51.368Z,27.02
2022-08-24T09:52:23.161Z,27.06
2022-08-24T09:55:08.111Z,27.17
2022-08-24T09:58:00.806Z,27.39
2022-08-24T10:00:38.607Z,27.36
2022-08-24T10:03:33.960Z,27.55
2022-08-24T10:06:17.302Z,27.72
2022-08-24T14:42:12.296Z,29.70
2022-08-24T14:44:57.035Z,29.68
2022-08-24T14:47:42.155Z,29.68
2022-08-24T15:36:14.573Z,29.07
2022-08-24T15:38:52.370Z,29.14
2022-08-24T16:04:44.720Z,29.09
2022-08-24T16:07:16.596Z,29.05
2022-08-24T16:09:43.746Z,29.09
2022-08-24T16:12:16.753Z,29.11
2022-08-24T16:14:48.838Z,29.13
2022-08-24T16:17:34.234Z,29.02
2022-08-24T16:20:06.331Z,28.93
2022-08-24T16:22:36.668Z,28.99
2022-08-24T16:25:26.563Z,28.98
2022-08-24T16:28:05.338Z,28.87
2022-08-24T16:30:41.172Z,28.87
2022-08-24T16:33:08.490Z,28.84
2022-08-24T16:35:35.957Z,28.89
2022-08-24T16:38:04.273Z,28.85
2022-08-24T16:40:34.791Z,28.84
2022-08-24T16:43:02.744Z,28.67
2022-08-24T16:45:32.824Z,28.70
2022-08-24T16:48:03.238Z,28.75
2022-08-24T16:50:30.541Z,28.71
2022-08-24T16:52:57.684Z,28.68
2022-08-24T16:55:24.703Z,28.64
2022-08-24T16:57:51.825Z,28.53
2022-08-24T17:00:19.505Z,28.55
2022-08-24T17:02:48.362Z,28.56
2022-08-24T17:05:16.412Z,28.53
2022-08-24T17:07:43.625Z,28.51
2022-08-24T17:10:12.235Z,28.38
2022-08-24T17:12:41.832Z,28.38
2022-08-24T17:15:17.033Z,28.37
2022-08-24T17:17:56.827Z,28.32
2022-08-24T17:20:25.125Z,28.30
2022-08-24T17:22:52.583Z,28.17
2022-08-24T17:25:19.752Z,28.10
2022-08-24T17:27:47.124Z,28.02
2022-08-24T17:30:17.323Z,28.05
2022-08-24T17:32:44.553Z,27.89
2022-08-24T17:35:11.668Z,27.86
2022-08-24T17:37:39.076Z,27.76
2022-08-24T17:40:07.556Z,27.73
2022-08-24T17:42:50.903Z,27.57
2022-08-24T17:55:58.534Z,27.30
2022-08-24T18:36:38.664Z,26.42
2022-08-24T18:46:53.998Z,26.37
